KPWM/PWM METAR and TAF weather

Enter ICAO airport designator
Station Type Date Time Source
KPWM METAR 2020/10/20 17:51 UTC NOAA

KPWM 201751Z 24007KT 10SM SCT018 BKN110 17/13 A3023 RMK AO2 SLP235 60000 T01670128 10167 20117 58008


Station Type Date Time Source
KPWM Decoded METAR 2020/10/20 17:51 UTC NOAA

PORTLAND INTERNATIONAL JETPORT, ME, United States (KPWM) 43-39N 70-18W 15M
Oct 20, 2020 - 01:51 PM EDT / 2020.10.20 1751 UTC
Wind: from the WSW (240 degrees) at 8 MPH (7 KT):0
Visibility: 10 mile(s):0
Sky conditions: mostly cloudy
Temperature: 62.1 F (16.7 C)
Dew Point: 55.0 F (12.8 C)
Relative Humidity: 77%
Pressure (altimeter): 30.23 in. Hg (1023 hPa)
Pressure tendency: 0.02 inches (0.8 hPa) lower than three hours ago
ob: KPWM 201751Z 24007KT 10SM SCT018 BKN110 17/13 A3023 RMK AO2 SLP235 60000 T01670128 10167 20117 58008
cycle: 18

Station Type Date Time Source
KPWM TAF 2020/10/20 18:36 UTC NOAA

TAF KPWM 201733Z 2018/2118 20008KT P6SM BKN025
FM202300 VRB02KT 2SM BR VCSH BKN007
FM210800 04005KT 2SM BR VCSH OVC002

Example: see airport list